LFSX 241300Z AUTO 27007KT 240V340 CAVOK 23/09 Q1014

ElémentsDécodage
LFSX Station météo située sur l'aérodrome de LUXEUIL Saint-Sauveur
241300Z émis le 24 du mois à 13h00 UTC
AUTO Bulletin édité par un automate
27007KT vent du 270°, 07 noeuds
240V340 vent de direction variable entre 240° et 340°
CAVOK Ceiling And Visibility OK
- Visibilité de 10 Km ou plus
- Pas de nuage au-dessous de 1500m ou au-dessous de l'altitude minimale du secteur la plus élevée (si>1500m) et absence de CB
- pas de temps présent significatif
23/09 température 23°C, point de rosée 09°C
 soit une humidité relative de 41%
Q1014 la pression au niveau de la mer (QNH) est de 1014 hPa